createdAt,value
2023-10-01T00:03:18.612Z,4.8
2023-10-01T00:08:18.193Z,4.5
2023-10-01T00:13:17.911Z,4.6
2023-10-01T00:18:17.424Z,4.3
2023-10-01T00:23:17.019Z,4
2023-10-01T00:28:16.690Z,4.4
2023-10-01T00:33:16.313Z,4.1
2023-10-01T00:38:15.906Z,4.3
2023-10-01T00:43:15.640Z,4.5
2023-10-01T00:48:15.244Z,4.6
2023-10-01T00:53:14.831Z,3.9
2023-10-01T00:58:14.383Z,4.6
2023-10-01T01:03:14.043Z,4.8
2023-10-01T01:08:13.568Z,3.7
2023-10-01T01:13:13.216Z,4.5
2023-10-01T01:18:12.810Z,4.2
2023-10-01T01:23:12.417Z,3.7
2023-10-01T01:28:12.012Z,4
2023-10-01T01:33:11.604Z,4
2023-10-01T01:38:11.209Z,3.7
2023-10-01T01:43:10.786Z,3.7
2023-10-01T01:48:10.360Z,3.4
2023-10-01T01:53:09.995Z,4.2
2023-10-01T01:58:09.595Z,3.3
2023-10-01T02:03:09.269Z,3.8
2023-10-01T02:08:08.777Z,3.5
2023-10-01T02:13:08.396Z,3.6
2023-10-01T02:18:07.986Z,3.9
2023-10-01T02:23:07.519Z,3.7
2023-10-01T02:28:07.150Z,4.1
2023-10-01T02:33:06.713Z,3.9
2023-10-01T02:38:06.321Z,4.3
2023-10-01T02:43:05.870Z,3.4
2023-10-01T02:48:05.499Z,4
2023-10-01T02:53:04.971Z,4.1
2023-10-01T02:58:04.628Z,4.3
2023-10-01T03:03:04.267Z,4.8
2023-10-01T03:08:03.672Z,3.9
2023-10-01T03:13:03.305Z,4.8
2023-10-01T03:18:02.885Z,4.3
2023-10-01T03:23:02.354Z,4.1
2023-10-01T03:28:01.943Z,3.9
2023-10-01T03:33:01.501Z,4.4
2023-10-01T03:38:00.996Z,4.4
2023-10-01T03:43:00.461Z,4.7
2023-10-01T03:47:59.942Z,5
2023-10-01T03:52:59.481Z,4
2023-10-01T03:57:58.983Z,3.7
2023-10-01T04:00:49.270Z,3.7
2023-10-01T04:02:09.836Z,3.7
2023-10-01T04:02:58.507Z,4.2
2023-10-01T04:07:57.935Z,3.7
2023-10-01T04:12:57.449Z,3.8
2023-10-01T04:17:56.978Z,3.9
2023-10-01T04:22:56.430Z,4.1
2023-10-01T04:27:55.997Z,3.8
2023-10-01T04:32:55.664Z,4.3
2023-10-01T04:37:55.013Z,3.8
2023-10-01T04:42:54.583Z,3.9
2023-10-01T04:47:54.031Z,4.6
2023-10-01T04:52:53.488Z,4.3
2023-10-01T04:57:53.049Z,3.9
2023-10-01T05:02:52.597Z,4.1
2023-10-01T05:07:52.057Z,3.2
2023-10-01T05:12:51.577Z,4.1
2023-10-01T05:17:51.168Z,3.8
2023-10-01T05:22:50.679Z,3.1
2023-10-01T05:27:50.214Z,3.6
2023-10-01T05:32:49.739Z,3.8
2023-10-01T05:37:49.316Z,3.4
2023-10-01T05:42:49.296Z,3.4
2023-10-01T05:47:49.339Z,3.2
2023-10-01T05:52:49.170Z,3.2
2023-10-01T05:57:47.337Z,3
2023-10-01T06:02:46.879Z,2.9
2023-10-01T06:07:46.366Z,2.9
2023-10-01T06:12:45.866Z,2.7
2023-10-01T06:17:45.409Z,2.5
2023-10-01T06:22:44.912Z,3.4
2023-10-01T06:27:44.403Z,2.7
2023-10-01T06:32:44.031Z,3
2023-10-01T06:37:43.500Z,2.5
2023-10-01T06:42:43.022Z,2.9
2023-10-01T06:47:42.710Z,2.9
2023-10-01T06:52:43.902Z,3
2023-10-01T06:57:41.660Z,2.5
2023-10-01T07:02:42.012Z,2.9
2023-10-01T07:07:40.831Z,2.4
2023-10-01T07:12:40.540Z,2.8
2023-10-01T07:17:40.076Z,2.1
2023-10-01T07:22:39.773Z,2.7
2023-10-01T07:27:39.296Z,1.9
2023-10-01T07:32:38.999Z,2.1
2023-10-01T07:37:38.760Z,2.2
2023-10-01T07:42:38.236Z,1.3
2023-10-01T07:47:37.867Z,2.3
2023-10-01T07:52:37.464Z,2
2023-10-01T07:57:37.080Z,2.1
2023-10-01T08:02:36.698Z,1.9
2023-10-01T08:07:36.334Z,1.6
2023-10-01T08:12:36.136Z,2.1
2023-10-01T08:17:36.268Z,1.5
2023-10-01T08:22:36.105Z,2.2
2023-10-01T08:27:34.801Z,2.5
2023-10-01T08:32:34.470Z,2.3
2023-10-01T08:37:34.130Z,1.9
2023-10-01T08:42:33.699Z,2
2023-10-01T08:47:33.619Z,1.9
2023-10-01T08:52:33.030Z,1.9
2023-10-01T08:57:32.661Z,1.7
2023-10-01T09:02:32.324Z,2.2
2023-10-01T09:07:31.934Z,1.7
2023-10-01T09:12:31.602Z,1.9
2023-10-01T09:17:31.476Z,1.8
2023-10-01T09:22:30.919Z,2
2023-10-01T09:27:30.646Z,1.3
2023-10-01T09:32:30.430Z,1.4
2023-10-01T09:37:30.018Z,1.4
2023-10-01T09:42:29.632Z,1.5
2023-10-01T09:47:29.401Z,2
2023-10-01T09:52:29.088Z,2
2023-10-01T09:57:28.778Z,1.6
2023-10-01T10:02:28.840Z,1.8
2023-10-01T10:07:28.180Z,2.2
2023-10-01T10:12:27.802Z,1.8
2023-10-01T10:17:27.714Z,1.9
2023-10-01T10:22:27.255Z,1.8
2023-10-01T10:27:26.842Z,2.3
2023-10-01T10:32:26.689Z,2.2
2023-10-01T10:37:26.257Z,2.4
2023-10-01T10:42:25.905Z,2.3
2023-10-01T10:47:25.613Z,2.3
2023-10-01T10:52:25.284Z,2.3
2023-10-01T10:57:24.990Z,1.9
2023-10-01T11:02:24.817Z,2
2023-10-01T11:07:24.408Z,2.2
2023-10-01T11:12:24.142Z,2.1
2023-10-01T11:17:23.805Z,2.4
2023-10-01T11:22:23.604Z,2.2
2023-10-01T11:27:23.189Z,3
2023-10-01T11:32:23.179Z,2.3
2023-10-01T11:37:22.683Z,1.9
2023-10-01T11:42:22.336Z,2
2023-10-01T11:47:22.099Z,2.3
2023-10-01T11:52:21.815Z,1.7
2023-10-01T11:57:21.519Z,1.8
2023-10-01T12:02:21.427Z,1.9
2023-10-01T12:07:21.024Z,1.5
2023-10-01T12:12:20.765Z,1.7
2023-10-01T12:17:22.284Z,1.8
2023-10-01T12:22:20.158Z,1.6
2023-10-01T12:27:19.915Z,1.9
2023-10-01T12:32:19.814Z,1
2023-10-01T12:37:19.462Z,1.7
2023-10-01T12:42:19.270Z,1.6
2023-10-01T12:47:19.010Z,2.2
2023-10-01T12:52:18.727Z,2.5
2023-10-01T12:57:18.464Z,1.3
2023-10-01T13:02:18.321Z,1.2
2023-10-01T13:07:18.036Z,1.4
2023-10-01T13:12:17.719Z,0.9
2023-10-01T13:17:17.485Z,1.2
2023-10-01T13:22:17.307Z,1.4
2023-10-01T13:27:16.963Z,1.5
2023-10-01T13:32:16.810Z,1.5
2023-10-01T13:37:16.383Z,1.2
2023-10-01T13:42:16.112Z,0.7
2023-10-01T13:47:15.962Z,1
2023-10-01T13:52:15.742Z,1
2023-10-01T13:57:15.276Z,1.1
2023-10-01T14:02:14.986Z,1.1
2023-10-01T14:07:14.783Z,1.2
2023-10-01T14:12:14.470Z,1.2
2023-10-01T14:17:14.246Z,0.8
2023-10-01T14:22:13.977Z,1.1
2023-10-01T14:27:13.645Z,0.8
2023-10-01T14:32:13.370Z,0.8
2023-10-01T14:37:13.147Z,0.8
2023-10-01T14:42:12.830Z,1
2023-10-01T14:47:12.626Z,1.2
2023-10-01T14:52:12.328Z,0.9
2023-10-01T14:57:12.104Z,0.7
2023-10-01T15:02:11.859Z,0.9
2023-10-01T15:07:11.563Z,1.1
2023-10-01T15:12:25.581Z,1.1
2023-10-01T15:17:11.923Z,0.7
2023-10-01T15:22:10.790Z,0.9
2023-10-01T15:27:10.496Z,1.5
2023-10-01T15:32:10.661Z,1
2023-10-01T15:37:09.924Z,1.1
2023-10-01T15:42:09.657Z,1.4
2023-10-01T15:47:09.335Z,0.9
2023-10-01T15:52:09.028Z,1.5
2023-10-01T15:57:08.748Z,1.8
2023-10-01T16:02:08.512Z,1.8
2023-10-01T16:07:08.189Z,1.6
2023-10-01T16:12:07.921Z,1.7
2023-10-01T16:17:07.578Z,1.6
2023-10-01T16:22:07.208Z,1.5
2023-10-01T16:27:06.883Z,1.5
2023-10-01T16:32:06.576Z,1.8
2023-10-01T16:37:06.188Z,1.7
2023-10-01T16:42:05.881Z,2.6
2023-10-01T16:47:05.539Z,1.5
2023-10-01T16:52:05.119Z,2.7
2023-10-01T16:57:04.762Z,5.2
2023-10-01T17:02:04.538Z,3.2
2023-10-01T17:07:04.094Z,1.8
2023-10-01T17:12:03.774Z,1.5
2023-10-01T17:17:03.413Z,1.5
2023-10-01T17:22:02.962Z,1.6
2023-10-01T17:27:02.634Z,1.7
2023-10-01T17:32:02.325Z,1.7
2023-10-01T17:37:01.901Z,1.5
2023-10-01T17:42:01.618Z,2.5
2023-10-01T17:47:01.316Z,1.7
2023-10-01T17:52:00.866Z,2.4
2023-10-01T17:57:00.475Z,2
2023-10-01T18:02:00.040Z,1.1
2023-10-01T18:06:59.594Z,1.6
2023-10-01T18:12:00.083Z,1.9
2023-10-01T18:16:58.871Z,1.8
2023-10-01T18:21:58.404Z,1.6
2023-10-01T18:26:58.069Z,1.4
2023-10-01T18:31:57.782Z,1.4
2023-10-01T18:36:57.192Z,1.4
2023-10-01T18:41:56.802Z,2
2023-10-01T18:46:56.451Z,2.5
2023-10-01T18:51:55.932Z,1.5
2023-10-01T18:56:55.566Z,1.5
2023-10-01T19:01:55.104Z,1.2
2023-10-01T19:06:54.706Z,1.9
2023-10-01T19:11:54.257Z,1.5
2023-10-01T19:16:53.987Z,2.2
2023-10-01T19:21:53.398Z,1.9
2023-10-01T19:26:52.915Z,1.8
2023-10-01T19:31:52.555Z,2.8
2023-10-01T19:36:54.159Z,2.5
2023-10-01T19:41:51.552Z,1.3
2023-10-01T19:46:51.132Z,1.3
2023-10-01T19:51:50.997Z,1.5
2023-10-01T19:56:50.916Z,2.1
2023-10-01T20:01:51.169Z,1.6
2023-10-01T20:06:51.020Z,2
2023-10-01T20:11:51.044Z,1.9
2023-10-01T20:16:51.001Z,2
2023-10-01T20:21:47.766Z,2.4
2023-10-01T20:26:47.305Z,2.3
2023-10-01T20:31:46.992Z,3.1
2023-10-01T20:36:50.365Z,2.9
2023-10-01T20:41:45.873Z,2.6
2023-10-01T20:46:45.517Z,2.8
2023-10-01T20:51:44.884Z,4.3
2023-10-01T20:56:44.451Z,2.3
2023-10-01T21:01:44.016Z,2.7
2023-10-01T21:06:43.413Z,3
2023-10-01T21:11:42.854Z,3.1
2023-10-01T21:16:42.375Z,2.1
2023-10-01T21:21:41.813Z,2.4
2023-10-01T21:26:41.318Z,2.8
2023-10-01T21:31:41.018Z,1.7
2023-10-01T21:36:40.405Z,1.6
2023-10-01T21:41:39.809Z,2.2
2023-10-01T21:46:39.317Z,4.2
2023-10-01T21:51:38.843Z,4
2023-10-01T21:56:38.330Z,1.9
2023-10-01T22:01:37.800Z,1.6
2023-10-01T22:06:37.357Z,2.7
2023-10-01T22:11:36.741Z,2
2023-10-01T22:16:36.239Z,1.8
2023-10-01T22:21:35.720Z,1.8
2023-10-01T22:26:35.217Z,2
2023-10-01T22:31:34.791Z,2.4
2023-10-01T22:36:34.204Z,1.5
2023-10-01T22:41:33.686Z,2
2023-10-01T22:46:33.097Z,1.8
2023-10-01T22:51:32.601Z,2.1
2023-10-01T22:56:32.054Z,1.5
2023-10-01T23:01:31.500Z,1.6
2023-10-01T23:06:30.975Z,1.5
2023-10-01T23:11:30.433Z,2
2023-10-01T23:16:30.165Z,1.3
2023-10-01T23:21:29.336Z,1.7
2023-10-01T23:26:29.126Z,2.3
2023-10-01T23:31:28.340Z,1.7
2023-10-01T23:36:27.701Z,2
2023-10-01T23:41:27.141Z,2.1
2023-10-01T23:46:26.682Z,1.5
2023-10-01T23:51:26.104Z,2
2023-10-01T23:56:25.494Z,2
